Oxley, Arkansas
Current Conditions -  °F | °C
As of 10:15 PM on Wednesday 17 Dec 2014 (Local Time) from KCCA Reporting Station
Light Rain Light Rain  
Wind Chill: 36°   Ceiling: 4200
Heat Index: 36°   Visibility: 4mi
Dew Point: 32°   Wind: 0mph
Humidity: 87%   Direction: NA
Pressure: 30.3"   Gusts: NA
Location:  35.8223°N, 92.5849°W
Report Text: KCCA 180415Z AUTO 00000KT 4SM -RA FEW022 SCT033 BKN042 02/00 A3030 RMK AO2 P0001
Loading
Personal Weather Stations






























Interactive Weather Map New forecast layout! Learn more

10-Day Weather Forecast

Advertisements
Track Severe Weather on mobile